sensor_id;sensor_type;location;lat;lon;timestamp;P1;durP1;ratioP1;P2;durP2;ratioP2
21418;SDS011;10870;51.384;10.316;2022-11-20T00:01:54;44.20;;;23.73;;
21418;SDS011;10870;51.384;10.316;2022-11-20T00:03:56;54.53;;;27.38;;
21418;SDS011;10870;51.384;10.316;2022-11-20T00:06:01;54.03;;;26.08;;
21418;SDS011;10870;51.384;10.316;2022-11-20T00:08:06;50.97;;;26.52;;
21418;SDS011;10870;51.384;10.316;2022-11-20T00:10:07;51.17;;;26.75;;
21418;SDS011;10870;51.384;10.316;2022-11-20T00:12:09;47.90;;;26.27;;
21418;SDS011;10870;51.384;10.316;2022-11-20T00:14:09;48.70;;;26.63;;
21418;SDS011;10870;51.384;10.316;2022-11-20T00:16:14;45.95;;;23.92;;
21418;SDS011;10870;51.384;10.316;2022-11-20T00:18:17;44.88;;;25.52;;
21418;SDS011;10870;51.384;10.316;2022-11-20T00:20:18;45.55;;;25.40;;
21418;SDS011;10870;51.384;10.316;2022-11-20T00:22:19;46.20;;;26.13;;
21418;SDS011;10870;51.384;10.316;2022-11-20T00:24:20;43.05;;;25.48;;
21418;SDS011;10870;51.384;10.316;2022-11-20T00:26:21;42.80;;;24.80;;
21418;SDS011;10870;51.384;10.316;2022-11-20T00:28:23;38.17;;;21.85;;
21418;SDS011;10870;51.384;10.316;2022-11-20T00:30:25;36.15;;;21.17;;
21418;SDS011;10870;51.384;10.316;2022-11-20T00:32:26;31.92;;;17.92;;
21418;SDS011;10870;51.384;10.316;2022-11-20T00:34:27;28.23;;;17.90;;
21418;SDS011;10870;51.384;10.316;2022-11-20T00:36:31;26.52;;;15.68;;
21418;SDS011;10870;51.384;10.316;2022-11-20T00:38:33;25.10;;;15.25;;
21418;SDS011;10870;51.384;10.316;2022-11-20T00:40:34;24.08;;;13.77;;
21418;SDS011;10870;51.384;10.316;2022-11-20T00:42:35;20.98;;;13.88;;
21418;SDS011;10870;51.384;10.316;2022-11-20T00:44:36;24.88;;;14.45;;
21418;SDS011;10870;51.384;10.316;2022-11-20T00:46:37;25.73;;;15.43;;
21418;SDS011;10870;51.384;10.316;2022-11-20T00:48:38;29.10;;;16.73;;
21418;SDS011;10870;51.384;10.316;2022-11-20T00:50:40;29.50;;;16.52;;
21418;SDS011;10870;51.384;10.316;2022-11-20T00:52:42;30.40;;;17.08;;
21418;SDS011;10870;51.384;10.316;2022-11-20T00:54:42;33.42;;;17.92;;
21418;SDS011;10870;51.384;10.316;2022-11-20T00:56:43;30.10;;;17.15;;
21418;SDS011;10870;51.384;10.316;2022-11-20T00:58:45;29.15;;;15.45;;
21418;SDS011;10870;51.384;10.316;2022-11-20T01:00:47;29.73;;;15.98;;
21418;SDS011;10870;51.384;10.316;2022-11-20T01:02:49;29.20;;;15.98;;
21418;SDS011;10870;51.384;10.316;2022-11-20T01:04:50;29.30;;;15.35;;
21418;SDS011;10870;51.384;10.316;2022-11-20T01:06:52;29.98;;;16.23;;
21418;SDS011;10870;51.384;10.316;2022-11-20T01:08:53;31.60;;;18.42;;
21418;SDS011;10870;51.384;10.316;2022-11-20T01:11:00;32.50;;;18.17;;
21418;SDS011;10870;51.384;10.316;2022-11-20T01:13:02;33.35;;;17.88;;
21418;SDS011;10870;51.384;10.316;2022-11-20T01:15:22;33.45;;;18.75;;
21418;SDS011;10870;51.384;10.316;2022-11-20T01:17:23;31.75;;;18.58;;
21418;SDS011;10870;51.384;10.316;2022-11-20T01:19:24;34.20;;;18.85;;
21418;SDS011;10870;51.384;10.316;2022-11-20T01:21:26;35.20;;;20.05;;
21418;SDS011;10870;51.384;10.316;2022-11-20T01:23:32;32.15;;;17.77;;
21418;SDS011;10870;51.384;10.316;2022-11-20T01:25:34;32.35;;;18.00;;
21418;SDS011;10870;51.384;10.316;2022-11-20T01:27:35;33.30;;;17.52;;
21418;SDS011;10870;51.384;10.316;2022-11-20T01:29:36;31.38;;;19.00;;
21418;SDS011;10870;51.384;10.316;2022-11-20T01:31:37;28.80;;;16.48;;
21418;SDS011;10870;51.384;10.316;2022-11-20T01:33:38;27.85;;;16.90;;
21418;SDS011;10870;51.384;10.316;2022-11-20T01:35:41;31.10;;;17.23;;
21418;SDS011;10870;51.384;10.316;2022-11-20T01:37:42;29.77;;;16.58;;
21418;SDS011;10870;51.384;10.316;2022-11-20T01:39:43;29.70;;;16.80;;
21418;SDS011;10870;51.384;10.316;2022-11-20T01:41:44;30.35;;;16.73;;
21418;SDS011;10870;51.384;10.316;2022-11-20T01:44:04;31.02;;;17.73;;
21418;SDS011;10870;51.384;10.316;2022-11-20T01:48:15;30.92;;;17.65;;
21418;SDS011;10870;51.384;10.316;2022-11-20T01:50:24;32.10;;;18.30;;
21418;SDS011;10870;51.384;10.316;2022-11-20T01:54:48;36.85;;;19.48;;
21418;SDS011;10870;51.384;10.316;2022-11-20T01:57:17;38.20;;;20.45;;
21418;SDS011;10870;51.384;10.316;2022-11-20T01:59:20;40.45;;;20.85;;
21418;SDS011;10870;51.384;10.316;2022-11-20T02:01:23;32.35;;;17.67;;
21418;SDS011;10870;51.384;10.316;2022-11-20T02:03:24;29.52;;;16.38;;
21418;SDS011;10870;51.384;10.316;2022-11-20T02:05:28;27.45;;;16.42;;
21418;SDS011;10870;51.384;10.316;2022-11-20T02:07:38;28.52;;;15.25;;
21418;SDS011;10870;51.384;10.316;2022-11-20T02:09:40;24.60;;;15.90;;
21418;SDS011;10870;51.384;10.316;2022-11-20T02:11:41;29.13;;;16.45;;
21418;SDS011;10870;51.384;10.316;2022-11-20T02:13:42;28.42;;;14.18;;
21418;SDS011;10870;51.384;10.316;2022-11-20T02:15:43;28.10;;;16.05;;
21418;SDS011;10870;51.384;10.316;2022-11-20T02:17:45;24.55;;;15.07;;
21418;SDS011;10870;51.384;10.316;2022-11-20T02:19:46;25.67;;;14.68;;
21418;SDS011;10870;51.384;10.316;2022-11-20T02:22:07;24.48;;;14.88;;
21418;SDS011;10870;51.384;10.316;2022-11-20T02:24:15;29.02;;;15.43;;
21418;SDS011;10870;51.384;10.316;2022-11-20T02:26:18;26.10;;;14.77;;
21418;SDS011;10870;51.384;10.316;2022-11-20T02:28:21;24.52;;;14.10;;
21418;SDS011;10870;51.384;10.316;2022-11-20T02:30:22;21.88;;;12.73;;
21418;SDS011;10870;51.384;10.316;2022-11-20T02:32:31;24.98;;;13.20;;
21418;SDS011;10870;51.384;10.316;2022-11-20T02:34:34;17.05;;;10.35;;
21418;SDS011;10870;51.384;10.316;2022-11-20T02:36:35;25.25;;;13.88;;
21418;SDS011;10870;51.384;10.316;2022-11-20T02:38:39;20.95;;;12.48;;
21418;SDS011;10870;51.384;10.316;2022-11-20T02:40:41;22.60;;;13.57;;
21418;SDS011;10870;51.384;10.316;2022-11-20T02:42:42;25.60;;;14.45;;
21418;SDS011;10870;51.384;10.316;2022-11-20T02:44:43;28.23;;;15.93;;
21418;SDS011;10870;51.384;10.316;2022-11-20T02:46:44;26.83;;;14.23;;
21418;SDS011;10870;51.384;10.316;2022-11-20T02:48:45;25.20;;;14.70;;
21418;SDS011;10870;51.384;10.316;2022-11-20T02:50:46;25.42;;;14.93;;
21418;SDS011;10870;51.384;10.316;2022-11-20T02:52:47;29.45;;;15.88;;
21418;SDS011;10870;51.384;10.316;2022-11-20T02:54:48;25.25;;;15.45;;
21418;SDS011;10870;51.384;10.316;2022-11-20T02:56:49;27.75;;;15.57;;
21418;SDS011;10870;51.384;10.316;2022-11-20T02:58:50;29.70;;;16.63;;
21418;SDS011;10870;51.384;10.316;2022-11-20T03:00:52;30.65;;;16.90;;
21418;SDS011;10870;51.384;10.316;2022-11-20T03:02:53;27.27;;;15.77;;
21418;SDS011;10870;51.384;10.316;2022-11-20T03:04:53;32.08;;;16.90;;
21418;SDS011;10870;51.384;10.316;2022-11-20T03:06:54;27.90;;;16.70;;
21418;SDS011;10870;51.384;10.316;2022-11-20T03:08:55;32.00;;;17.77;;
21418;SDS011;10870;51.384;10.316;2022-11-20T03:10:56;32.33;;;17.90;;
21418;SDS011;10870;51.384;10.316;2022-11-20T03:13:01;25.52;;;15.48;;
21418;SDS011;10870;51.384;10.316;2022-11-20T03:15:03;32.92;;;17.83;;
21418;SDS011;10870;51.384;10.316;2022-11-20T03:17:04;30.10;;;16.83;;
21418;SDS011;10870;51.384;10.316;2022-11-20T03:19:05;32.20;;;17.33;;
21418;SDS011;10870;51.384;10.316;2022-11-20T03:21:06;33.05;;;16.98;;
21418;SDS011;10870;51.384;10.316;2022-11-20T03:23:08;32.95;;;17.83;;
21418;SDS011;10870;51.384;10.316;2022-11-20T03:25:09;32.53;;;16.75;;
21418;SDS011;10870;51.384;10.316;2022-11-20T03:27:10;31.63;;;17.55;;
21418;SDS011;10870;51.384;10.316;2022-11-20T03:29:11;31.60;;;16.98;;
21418;SDS011;10870;51.384;10.316;2022-11-20T03:31:13;30.27;;;16.73;;
21418;SDS011;10870;51.384;10.316;2022-11-20T03:33:14;24.90;;;16.35;;
21418;SDS011;10870;51.384;10.316;2022-11-20T03:35:15;29.25;;;16.08;;
21418;SDS011;10870;51.384;10.316;2022-11-20T03:37:16;32.42;;;16.17;;
21418;SDS011;10870;51.384;10.316;2022-11-20T03:39:17;28.20;;;15.75;;
21418;SDS011;10870;51.384;10.316;2022-11-20T03:41:19;25.67;;;15.30;;
21418;SDS011;10870;51.384;10.316;2022-11-20T03:43:22;24.38;;;14.15;;
21418;SDS011;10870;51.384;10.316;2022-11-20T03:45:23;23.15;;;14.18;;
21418;SDS011;10870;51.384;10.316;2022-11-20T03:47:24;21.98;;;13.70;;
21418;SDS011;10870;51.384;10.316;2022-11-20T03:49:25;26.13;;;14.55;;
21418;SDS011;10870;51.384;10.316;2022-11-20T03:51:27;26.00;;;14.35;;
21418;SDS011;10870;51.384;10.316;2022-11-20T03:53:29;24.30;;;13.15;;
21418;SDS011;10870;51.384;10.316;2022-11-20T03:55:30;21.02;;;13.60;;
21418;SDS011;10870;51.384;10.316;2022-11-20T03:57:31;21.85;;;12.60;;
21418;SDS011;10870;51.384;10.316;2022-11-20T03:59:32;25.20;;;13.57;;
21418;SDS011;10870;51.384;10.316;2022-11-20T04:01:34;24.23;;;13.48;;
21418;SDS011;10870;51.384;10.316;2022-11-20T04:03:38;26.92;;;14.10;;
21418;SDS011;10870;51.384;10.316;2022-11-20T04:05:40;26.63;;;14.23;;
21418;SDS011;10870;51.384;10.316;2022-11-20T04:07:41;24.95;;;14.40;;
21418;SDS011;10870;51.384;10.316;2022-11-20T04:09:42;24.20;;;14.15;;
21418;SDS011;10870;51.384;10.316;2022-11-20T04:11:43;23.33;;;13.98;;
21418;SDS011;10870;51.384;10.316;2022-11-20T04:13:51;25.10;;;13.27;;
21418;SDS011;10870;51.384;10.316;2022-11-20T04:15:56;21.48;;;12.27;;
21418;SDS011;10870;51.384;10.316;2022-11-20T04:17:57;21.05;;;11.43;;
21418;SDS011;10870;51.384;10.316;2022-11-20T04:19:59;21.90;;;11.65;;
21418;SDS011;10870;51.384;10.316;2022-11-20T04:22:08;21.98;;;11.73;;
21418;SDS011;10870;51.384;10.316;2022-11-20T04:24:11;21.63;;;12.25;;
21418;SDS011;10870;51.384;10.316;2022-11-20T04:26:12;20.90;;;11.52;;
21418;SDS011;10870;51.384;10.316;2022-11-20T04:28:13;21.33;;;11.50;;
21418;SDS011;10870;51.384;10.316;2022-11-20T04:30:14;23.27;;;11.63;;
21418;SDS011;10870;51.384;10.316;2022-11-20T04:32:15;18.33;;;10.85;;
21418;SDS011;10870;51.384;10.316;2022-11-20T04:34:16;23.20;;;12.88;;
21418;SDS011;10870;51.384;10.316;2022-11-20T04:36:21;22.30;;;10.55;;
21418;SDS011;10870;51.384;10.316;2022-11-20T04:38:23;22.38;;;13.95;;
21418;SDS011;10870;51.384;10.316;2022-11-20T04:40:24;17.45;;;10.50;;
21418;SDS011;10870;51.384;10.316;2022-11-20T04:42:25;19.35;;;10.85;;
21418;SDS011;10870;51.384;10.316;2022-11-20T04:44:29;21.65;;;10.75;;
21418;SDS011;10870;51.384;10.316;2022-11-20T04:46:31;20.98;;;11.77;;
21418;SDS011;10870;51.384;10.316;2022-11-20T04:48:34;19.52;;;11.45;;
21418;SDS011;10870;51.384;10.316;2022-11-20T04:50:39;20.13;;;11.13;;
21418;SDS011;10870;51.384;10.316;2022-11-20T04:52:40;17.38;;;10.10;;
21418;SDS011;10870;51.384;10.316;2022-11-20T04:54:41;17.45;;;11.15;;
21418;SDS011;10870;51.384;10.316;2022-11-20T04:56:42;19.25;;;10.88;;
21418;SDS011;10870;51.384;10.316;2022-11-20T04:58:43;23.60;;;13.25;;
21418;SDS011;10870;51.384;10.316;2022-11-20T05:00:44;22.63;;;12.32;;
21418;SDS011;10870;51.384;10.316;2022-11-20T05:02:45;23.40;;;12.13;;
21418;SDS011;10870;51.384;10.316;2022-11-20T05:04:46;23.55;;;13.45;;
21418;SDS011;10870;51.384;10.316;2022-11-20T05:06:47;18.02;;;10.82;;
21418;SDS011;10870;51.384;10.316;2022-11-20T05:08:50;20.13;;;12.00;;
21418;SDS011;10870;51.384;10.316;2022-11-20T05:10:51;18.98;;;11.23;;
21418;SDS011;10870;51.384;10.316;2022-11-20T05:12:52;23.35;;;12.45;;
21418;SDS011;10870;51.384;10.316;2022-11-20T05:14:53;19.98;;;11.75;;
21418;SDS011;10870;51.384;10.316;2022-11-20T05:16:54;21.88;;;11.90;;
21418;SDS011;10870;51.384;10.316;2022-11-20T05:18:55;20.35;;;11.98;;
21418;SDS011;10870;51.384;10.316;2022-11-20T05:20:57;20.00;;;12.02;;
21418;SDS011;10870;51.384;10.316;2022-11-20T05:22:58;22.05;;;11.88;;
21418;SDS011;10870;51.384;10.316;2022-11-20T05:24:59;21.30;;;12.55;;
21418;SDS011;10870;51.384;10.316;2022-11-20T05:27:00;24.35;;;12.77;;
21418;SDS011;10870;51.384;10.316;2022-11-20T05:29:02;24.23;;;13.20;;
21418;SDS011;10870;51.384;10.316;2022-11-20T05:31:04;23.67;;;12.18;;
21418;SDS011;10870;51.384;10.316;2022-11-20T05:33:09;22.77;;;12.13;;
21418;SDS011;10870;51.384;10.316;2022-11-20T05:35:10;21.83;;;12.85;;
21418;SDS011;10870;51.384;10.316;2022-11-20T05:37:11;25.52;;;12.82;;
21418;SDS011;10870;51.384;10.316;2022-11-20T05:39:13;24.77;;;12.60;;
21418;SDS011;10870;51.384;10.316;2022-11-20T05:41:15;21.58;;;12.75;;
21418;SDS011;10870;51.384;10.316;2022-11-20T05:43:17;20.30;;;12.38;;
21418;SDS011;10870;51.384;10.316;2022-11-20T05:45:18;21.33;;;12.60;;
21418;SDS011;10870;51.384;10.316;2022-11-20T05:47:19;23.83;;;13.25;;
21418;SDS011;10870;51.384;10.316;2022-11-20T05:49:20;22.65;;;13.65;;
21418;SDS011;10870;51.384;10.316;2022-11-20T05:51:21;19.85;;;11.77;;
21418;SDS011;10870;51.384;10.316;2022-11-20T05:53:23;24.42;;;13.00;;
21418;SDS011;10870;51.384;10.316;2022-11-20T05:55:25;25.23;;;13.48;;
21418;SDS011;10870;51.384;10.316;2022-11-20T05:57:27;24.08;;;13.15;;
21418;SDS011;10870;51.384;10.316;2022-11-20T05:59:28;21.42;;;12.43;;
21418;SDS011;10870;51.384;10.316;2022-11-20T06:01:29;23.85;;;12.88;;
21418;SDS011;10870;51.384;10.316;2022-11-20T06:03:30;22.98;;;13.30;;
21418;SDS011;10870;51.384;10.316;2022-11-20T06:05:33;26.95;;;13.27;;
21418;SDS011;10870;51.384;10.316;2022-11-20T06:07:34;27.63;;;13.60;;
21418;SDS011;10870;51.384;10.316;2022-11-20T06:09:35;26.15;;;12.88;;
21418;SDS011;10870;51.384;10.316;2022-11-20T06:11:35;26.92;;;14.27;;
21418;SDS011;10870;51.384;10.316;2022-11-20T06:13:37;26.35;;;14.57;;
21418;SDS011;10870;51.384;10.316;2022-11-20T06:15:38;26.95;;;14.18;;
21418;SDS011;10870;51.384;10.316;2022-11-20T06:17:39;30.63;;;14.95;;
21418;SDS011;10870;51.384;10.316;2022-11-20T06:19:40;30.13;;;15.20;;
21418;SDS011;10870;51.384;10.316;2022-11-20T06:21:41;24.90;;;14.55;;
21418;SDS011;10870;51.384;10.316;2022-11-20T06:23:42;27.80;;;15.13;;
21418;SDS011;10870;51.384;10.316;2022-11-20T06:25:44;28.10;;;13.88;;
21418;SDS011;10870;51.384;10.316;2022-11-20T06:27:44;31.05;;;15.75;;
21418;SDS011;10870;51.384;10.316;2022-11-20T06:29:46;32.92;;;14.95;;
21418;SDS011;10870;51.384;10.316;2022-11-20T06:31:47;32.03;;;14.95;;
21418;SDS011;10870;51.384;10.316;2022-11-20T06:33:47;33.15;;;15.45;;
21418;SDS011;10870;51.384;10.316;2022-11-20T06:35:49;30.65;;;15.27;;
21418;SDS011;10870;51.384;10.316;2022-11-20T06:37:50;29.95;;;15.18;;
21418;SDS011;10870;51.384;10.316;2022-11-20T06:39:51;27.00;;;15.35;;
21418;SDS011;10870;51.384;10.316;2022-11-20T06:41:52;32.42;;;15.23;;
21418;SDS011;10870;51.384;10.316;2022-11-20T06:43:53;29.48;;;15.25;;
21418;SDS011;10870;51.384;10.316;2022-11-20T06:45:55;32.22;;;15.90;;
21418;SDS011;10870;51.384;10.316;2022-11-20T06:47:57;31.17;;;15.07;;
21418;SDS011;10870;51.384;10.316;2022-11-20T06:49:58;28.02;;;15.00;;
21418;SDS011;10870;51.384;10.316;2022-11-20T06:51:59;34.47;;;16.77;;
21418;SDS011;10870;51.384;10.316;2022-11-20T06:54:03;32.03;;;16.00;;
21418;SDS011;10870;51.384;10.316;2022-11-20T06:56:13;34.35;;;16.17;;
21418;SDS011;10870;51.384;10.316;2022-11-20T06:58:14;32.83;;;16.25;;
21418;SDS011;10870;51.384;10.316;2022-11-20T07:00:16;36.75;;;16.98;;
21418;SDS011;10870;51.384;10.316;2022-11-20T07:02:17;32.72;;;15.52;;
21418;SDS011;10870;51.384;10.316;2022-11-20T07:04:18;27.52;;;15.15;;
21418;SDS011;10870;51.384;10.316;2022-11-20T07:06:19;30.50;;;16.25;;
21418;SDS011;10870;51.384;10.316;2022-11-20T07:08:20;32.35;;;16.00;;
21418;SDS011;10870;51.384;10.316;2022-11-20T07:10:21;28.90;;;16.90;;
21418;SDS011;10870;51.384;10.316;2022-11-20T07:12:22;32.65;;;16.00;;
21418;SDS011;10870;51.384;10.316;2022-11-20T07:14:23;30.50;;;14.85;;
21418;SDS011;10870;51.384;10.316;2022-11-20T07:16:24;27.98;;;14.45;;
21418;SDS011;10870;51.384;10.316;2022-11-20T07:18:25;29.38;;;15.55;;
21418;SDS011;10870;51.384;10.316;2022-11-20T07:20:26;25.73;;;14.02;;
21418;SDS011;10870;51.384;10.316;2022-11-20T07:22:28;31.70;;;15.52;;
21418;SDS011;10870;51.384;10.316;2022-11-20T07:24:29;30.45;;;15.68;;
21418;SDS011;10870;51.384;10.316;2022-11-20T07:26:30;32.88;;;15.85;;
21418;SDS011;10870;51.384;10.316;2022-11-20T07:28:31;30.42;;;16.15;;
21418;SDS011;10870;51.384;10.316;2022-11-20T07:30:32;33.30;;;16.08;;
21418;SDS011;10870;51.384;10.316;2022-11-20T07:32:33;31.50;;;15.05;;
21418;SDS011;10870;51.384;10.316;2022-11-20T07:34:34;32.40;;;16.08;;
21418;SDS011;10870;51.384;10.316;2022-11-20T07:36:37;27.20;;;14.75;;
21418;SDS011;10870;51.384;10.316;2022-11-20T07:38:39;30.20;;;15.07;;
21418;SDS011;10870;51.384;10.316;2022-11-20T07:40:40;33.08;;;15.73;;
21418;SDS011;10870;51.384;10.316;2022-11-20T07:42:48;30.40;;;15.57;;
21418;SDS011;10870;51.384;10.316;2022-11-20T07:44:50;28.95;;;14.63;;
21418;SDS011;10870;51.384;10.316;2022-11-20T07:46:51;33.63;;;14.68;;
21418;SDS011;10870;51.384;10.316;2022-11-20T07:48:52;31.67;;;14.80;;
21418;SDS011;10870;51.384;10.316;2022-11-20T07:50:53;31.58;;;15.20;;
21418;SDS011;10870;51.384;10.316;2022-11-20T07:53:04;34.33;;;16.38;;
21418;SDS011;10870;51.384;10.316;2022-11-20T07:55:06;25.88;;;12.02;;
21418;SDS011;10870;51.384;10.316;2022-11-20T07:57:07;41.20;;;14.65;;
21418;SDS011;10870;51.384;10.316;2022-11-20T07:59:09;46.13;;;16.45;;
21418;SDS011;10870;51.384;10.316;2022-11-20T08:01:12;36.65;;;14.27;;
21418;SDS011;10870;51.384;10.316;2022-11-20T08:03:12;31.50;;;15.00;;
21418;SDS011;10870;51.384;10.316;2022-11-20T08:05:14;30.00;;;13.35;;
21418;SDS011;10870;51.384;10.316;2022-11-20T08:07:15;34.45;;;16.15;;
21418;SDS011;10870;51.384;10.316;2022-11-20T08:09:16;39.38;;;17.80;;
21418;SDS011;10870;51.384;10.316;2022-11-20T08:11:17;56.40;;;20.60;;
21418;SDS011;10870;51.384;10.316;2022-11-20T08:13:36;43.80;;;17.65;;
21418;SDS011;10870;51.384;10.316;2022-11-20T08:15:56;44.22;;;17.25;;
21418;SDS011;10870;51.384;10.316;2022-11-20T08:18:04;42.47;;;17.08;;
21418;SDS011;10870;51.384;10.316;2022-11-20T08:20:07;42.25;;;16.17;;
21418;SDS011;10870;51.384;10.316;2022-11-20T08:22:08;37.03;;;14.00;;
21418;SDS011;10870;51.384;10.316;2022-11-20T08:24:09;31.98;;;13.05;;
21418;SDS011;10870;51.384;10.316;2022-11-20T08:26:11;32.53;;;13.73;;
21418;SDS011;10870;51.384;10.316;2022-11-20T08:28:12;31.20;;;13.85;;
21418;SDS011;10870;51.384;10.316;2022-11-20T08:30:13;32.78;;;13.70;;
21418;SDS011;10870;51.384;10.316;2022-11-20T08:32:14;37.38;;;15.45;;
21418;SDS011;10870;51.384;10.316;2022-11-20T08:34:15;36.20;;;13.25;;
21418;SDS011;10870;51.384;10.316;2022-11-20T08:36:16;32.25;;;13.13;;
21418;SDS011;10870;51.384;10.316;2022-11-20T08:38:18;34.22;;;14.63;;
21418;SDS011;10870;51.384;10.316;2022-11-20T08:40:19;32.83;;;14.32;;
21418;SDS011;10870;51.384;10.316;2022-11-20T08:42:20;35.85;;;13.73;;
21418;SDS011;10870;51.384;10.316;2022-11-20T08:44:21;36.17;;;14.30;;
21418;SDS011;10870;51.384;10.316;2022-11-20T08:46:23;53.03;;;21.52;;
21418;SDS011;10870;51.384;10.316;2022-11-20T08:48:27;36.13;;;14.55;;
21418;SDS011;10870;51.384;10.316;2022-11-20T08:50:28;51.45;;;21.45;;
21418;SDS011;10870;51.384;10.316;2022-11-20T08:52:31;46.28;;;16.92;;
21418;SDS011;10870;51.384;10.316;2022-11-20T08:54:32;42.03;;;17.88;;
21418;SDS011;10870;51.384;10.316;2022-11-20T08:56:33;43.92;;;18.42;;
21418;SDS011;10870;51.384;10.316;2022-11-20T08:58:39;69.20;;;20.23;;
21418;SDS011;10870;51.384;10.316;2022-11-20T09:00:44;66.20;;;27.00;;
21418;SDS011;10870;51.384;10.316;2022-11-20T09:02:48;48.10;;;19.00;;
21418;SDS011;10870;51.384;10.316;2022-11-20T09:04:49;51.80;;;20.23;;
21418;SDS011;10870;51.384;10.316;2022-11-20T09:06:52;49.97;;;18.83;;
21418;SDS011;10870;51.384;10.316;2022-11-20T09:08:55;65.38;;;21.15;;
21418;SDS011;10870;51.384;10.316;2022-11-20T09:10:57;51.97;;;21.00;;
21418;SDS011;10870;51.384;10.316;2022-11-20T09:12:59;51.25;;;19.23;;
21418;SDS011;10870;51.384;10.316;2022-11-20T09:15:02;54.08;;;21.88;;
21418;SDS011;10870;51.384;10.316;2022-11-20T09:17:03;38.00;;;17.33;;
21418;SDS011;10870;51.384;10.316;2022-11-20T09:19:04;50.15;;;21.20;;
21418;SDS011;10870;51.384;10.316;2022-11-20T09:21:06;44.72;;;19.42;;
21418;SDS011;10870;51.384;10.316;2022-11-20T09:23:12;37.33;;;16.92;;
21418;SDS011;10870;51.384;10.316;2022-11-20T09:25:13;39.08;;;17.65;;
21418;SDS011;10870;51.384;10.316;2022-11-20T09:27:14;36.05;;;16.80;;
21418;SDS011;10870;51.384;10.316;2022-11-20T09:29:16;33.38;;;17.00;;
21418;SDS011;10870;51.384;10.316;2022-11-20T09:31:23;31.05;;;15.32;;
21418;SDS011;10870;51.384;10.316;2022-11-20T09:33:28;27.80;;;15.48;;
21418;SDS011;10870;51.384;10.316;2022-11-20T09:35:29;45.22;;;23.13;;
21418;SDS011;10870;51.384;10.316;2022-11-20T09:37:32;49.92;;;24.45;;
21418;SDS011;10870;51.384;10.316;2022-11-20T09:39:35;34.38;;;16.92;;
21418;SDS011;10870;51.384;10.316;2022-11-20T09:43:55;29.63;;;15.23;;
21418;SDS011;10870;51.384;10.316;2022-11-20T09:51:04;25.13;;;11.32;;
21418;SDS011;10870;51.384;10.316;2022-11-20T09:55:15;28.00;;;15.25;;
21418;SDS011;10870;51.384;10.316;2022-11-20T09:57:18;36.65;;;16.48;;
21418;SDS011;10870;51.384;10.316;2022-11-20T09:59:46;36.72;;;16.67;;
21418;SDS011;10870;51.384;10.316;2022-11-20T10:01:49;30.08;;;14.75;;
21418;SDS011;10870;51.384;10.316;2022-11-20T10:21:12;25.15;;;13.43;;
21418;SDS011;10870;51.384;10.316;2022-11-20T10:26:20;38.65;;;18.77;;
21418;SDS011;10870;51.384;10.316;2022-11-20T10:29:13;32.78;;;15.90;;
21418;SDS011;10870;51.384;10.316;2022-11-20T10:33:39;37.90;;;23.75;;
21418;SDS011;10870;51.384;10.316;2022-11-20T10:38:26;25.25;;;13.98;;
21418;SDS011;10870;51.384;10.316;2022-11-20T10:42:37;37.63;;;18.58;;
21418;SDS011;10870;51.384;10.316;2022-11-20T10:44:49;22.30;;;13.05;;
21418;SDS011;10870;51.384;10.316;2022-11-20T10:47:03;28.05;;;15.00;;
21418;SDS011;10870;51.384;10.316;2022-11-20T10:49:11;26.35;;;14.50;;
21418;SDS011;10870;51.384;10.316;2022-11-20T10:53:53;26.90;;;15.40;;
21418;SDS011;10870;51.384;10.316;2022-11-20T10:56:10;31.33;;;16.85;;
21418;SDS011;10870;51.384;10.316;2022-11-20T11:00:31;28.85;;;16.17;;
21418;SDS011;10870;51.384;10.316;2022-11-20T11:02:47;29.35;;;16.55;;
21418;SDS011;10870;51.384;10.316;2022-11-20T11:04:53;30.50;;;15.93;;
21418;SDS011;10870;51.384;10.316;2022-11-20T11:06:58;34.50;;;16.35;;
21418;SDS011;10870;51.384;10.316;2022-11-20T11:09:16;33.15;;;18.83;;
21418;SDS011;10870;51.384;10.316;2022-11-20T11:13:27;27.23;;;15.07;;
21418;SDS011;10870;51.384;10.316;2022-11-20T11:15:36;26.27;;;15.27;;
21418;SDS011;10870;51.384;10.316;2022-11-20T11:17:45;24.03;;;12.53;;
21418;SDS011;10870;51.384;10.316;2022-11-20T11:19:56;26.77;;;13.88;;
21418;SDS011;10870;51.384;10.316;2022-11-20T11:22:02;29.30;;;15.52;;
21418;SDS011;10870;51.384;10.316;2022-11-20T11:24:28;24.05;;;13.77;;
21418;SDS011;10870;51.384;10.316;2022-11-20T11:26:32;26.50;;;15.02;;
21418;SDS011;10870;51.384;10.316;2022-11-20T11:28:35;25.25;;;15.57;;
21418;SDS011;10870;51.384;10.316;2022-11-20T11:30:42;26.15;;;14.45;;
21418;SDS011;10870;51.384;10.316;2022-11-20T11:32:46;30.83;;;19.05;;
21418;SDS011;10870;51.384;10.316;2022-11-20T11:35:17;26.73;;;16.23;;
21418;SDS011;10870;51.384;10.316;2022-11-20T11:37:32;29.98;;;14.88;;
21418;SDS011;10870;51.384;10.316;2022-11-20T11:39:38;27.90;;;16.25;;
21418;SDS011;10870;51.384;10.316;2022-11-20T11:41:42;25.98;;;15.35;;
21418;SDS011;10870;51.384;10.316;2022-11-20T11:43:51;28.50;;;16.77;;
21418;SDS011;10870;51.384;10.316;2022-11-20T11:48:25;28.23;;;16.58;;
21418;SDS011;10870;51.384;10.316;2022-11-20T11:50:29;21.85;;;13.95;;
21418;SDS011;10870;51.384;10.316;2022-11-20T11:52:31;23.23;;;13.02;;
21418;SDS011;10870;51.384;10.316;2022-11-20T11:54:37;21.23;;;13.40;;
21418;SDS011;10870;51.384;10.316;2022-11-20T11:56:39;22.77;;;14.32;;
21418;SDS011;10870;51.384;10.316;2022-11-20T11:58:51;25.17;;;16.02;;
21418;SDS011;10870;51.384;10.316;2022-11-20T12:01:00;19.08;;;12.50;;
21418;SDS011;10870;51.384;10.316;2022-11-20T12:03:27;34.95;;;22.10;;
21418;SDS011;10870;51.384;10.316;2022-11-20T12:05:38;32.35;;;18.42;;
21418;SDS011;10870;51.384;10.316;2022-11-20T12:10:16;32.63;;;15.63;;
21418;SDS011;10870;51.384;10.316;2022-11-20T12:12:37;22.08;;;12.50;;
21418;SDS011;10870;51.384;10.316;2022-11-20T12:14:44;24.23;;;13.07;;
21418;SDS011;10870;51.384;10.316;2022-11-20T12:16:54;39.00;;;24.27;;
21418;SDS011;10870;51.384;10.316;2022-11-20T12:18:57;24.80;;;16.27;;
21418;SDS011;10870;51.384;10.316;2022-11-20T12:25:26;101.35;;;60.60;;
21418;SDS011;10870;51.384;10.316;2022-11-20T12:27:37;40.75;;;21.17;;
21418;SDS011;10870;51.384;10.316;2022-11-20T12:30:00;50.50;;;24.17;;
21418;SDS011;10870;51.384;10.316;2022-11-20T12:34:32;23.98;;;13.45;;
21418;SDS011;10870;51.384;10.316;2022-11-20T12:36:58;26.25;;;17.05;;
21418;SDS011;10870;51.384;10.316;2022-11-20T12:46:42;34.83;;;22.15;;
21418;SDS011;10870;51.384;10.316;2022-11-20T13:06:18;15.38;;;10.18;;
21418;SDS011;10870;51.384;10.316;2022-11-20T13:08:25;17.27;;;10.02;;
21418;SDS011;10870;51.384;10.316;2022-11-20T13:10:47;15.48;;;9.25;;
21418;SDS011;10870;51.384;10.316;2022-11-20T13:12:59;15.35;;;10.32;;
21418;SDS011;10870;51.384;10.316;2022-11-20T13:15:31;14.50;;;10.63;;
21418;SDS011;10870;51.384;10.316;2022-11-20T13:18:08;13.90;;;9.85;;
21418;SDS011;10870;51.384;10.316;2022-11-20T13:20:12;14.52;;;10.32;;